sensor_id;sensor_type;location;lat;lon;timestamp;pressure;altitude;pressure_sealevel;temperature;humidity
3598;BME280;1813;52.016;8.714;2022-07-25T00:00:11;-16261.94;;;-139.71;69.81
3598;BME280;1813;52.016;8.714;2022-07-25T00:02:43;-16261.94;;;-139.71;68.95
3598;BME280;1813;52.016;8.714;2022-07-25T00:05:16;-16261.94;;;-139.71;68.49
3598;BME280;1813;52.016;8.714;2022-07-25T00:07:49;-16261.94;;;-139.71;68.80
3598;BME280;1813;52.016;8.714;2022-07-25T00:10:20;-16261.94;;;-139.71;68.62
3598;BME280;1813;52.016;8.714;2022-07-25T00:12:52;-16261.94;;;-139.71;68.32
3598;BME280;1813;52.016;8.714;2022-07-25T00:15:24;-16261.94;;;-139.71;67.49
3598;BME280;1813;52.016;8.714;2022-07-25T00:17:56;-16261.94;;;-139.71;67.08
3598;BME280;1813;52.016;8.714;2022-07-25T00:20:30;-16261.94;;;-139.71;67.21
3598;BME280;1813;52.016;8.714;2022-07-25T00:23:02;-16261.94;;;-139.71;67.87
3598;BME280;1813;52.016;8.714;2022-07-25T00:25:34;-16261.94;;;-139.71;68.39
3598;BME280;1813;52.016;8.714;2022-07-25T00:28:06;-16261.94;;;-139.71;68.62
3598;BME280;1813;52.016;8.714;2022-07-25T00:30:37;-16261.94;;;-139.71;68.64
3598;BME280;1813;52.016;8.714;2022-07-25T00:33:09;-16261.94;;;-139.71;68.81
3598;BME280;1813;52.016;8.714;2022-07-25T00:35:43;-16261.94;;;-139.71;68.78
3598;BME280;1813;52.016;8.714;2022-07-25T00:38:15;-16261.94;;;-139.71;69.06
3598;BME280;1813;52.016;8.714;2022-07-25T00:40:47;-16261.94;;;-139.71;69.32
3598;BME280;1813;52.016;8.714;2022-07-25T00:43:19;-16261.94;;;-139.71;68.73
3598;BME280;1813;52.016;8.714;2022-07-25T00:45:51;-16261.94;;;-139.71;68.37
3598;BME280;1813;52.016;8.714;2022-07-25T00:48:23;-16261.94;;;-139.71;68.75
3598;BME280;1813;52.016;8.714;2022-07-25T00:50:57;-16261.94;;;-139.71;68.71
3598;BME280;1813;52.016;8.714;2022-07-25T00:53:29;-16261.94;;;-139.71;68.88
3598;BME280;1813;52.016;8.714;2022-07-25T00:56:02;-16261.94;;;-139.71;68.90
3598;BME280;1813;52.016;8.714;2022-07-25T00:58:34;-16261.94;;;-139.71;69.05
3598;BME280;1813;52.016;8.714;2022-07-25T01:01:06;-16261.94;;;-139.71;68.92
3598;BME280;1813;52.016;8.714;2022-07-25T01:03:38;-16261.94;;;-139.71;69.08
3598;BME280;1813;52.016;8.714;2022-07-25T01:06:11;-16261.94;;;-139.71;69.19
3598;BME280;1813;52.016;8.714;2022-07-25T01:08:43;-16261.94;;;-139.71;69.21
3598;BME280;1813;52.016;8.714;2022-07-25T01:11:16;-16261.94;;;-139.71;69.27
3598;BME280;1813;52.016;8.714;2022-07-25T01:13:48;-16261.94;;;-139.71;69.99
3598;BME280;1813;52.016;8.714;2022-07-25T01:16:20;-16261.94;;;-139.71;69.95
3598;BME280;1813;52.016;8.714;2022-07-25T01:18:52;-16261.94;;;-139.71;69.99
3598;BME280;1813;52.016;8.714;2022-07-25T01:21:25;-16261.94;;;-139.71;69.47
3598;BME280;1813;52.016;8.714;2022-07-25T01:23:58;-16261.94;;;-139.71;69.58
3598;BME280;1813;52.016;8.714;2022-07-25T01:26:30;-16261.94;;;-139.71;69.53
3598;BME280;1813;52.016;8.714;2022-07-25T01:29:03;-16261.94;;;-139.71;70.23
3598;BME280;1813;52.016;8.714;2022-07-25T01:31:35;-16261.94;;;-139.71;70.43
3598;BME280;1813;52.016;8.714;2022-07-25T01:34:07;-16261.94;;;-139.71;70.62
3598;BME280;1813;52.016;8.714;2022-07-25T01:36:40;-16261.94;;;-139.71;70.82
3598;BME280;1813;52.016;8.714;2022-07-25T01:39:12;-16261.94;;;-139.71;70.14
3598;BME280;1813;52.016;8.714;2022-07-25T01:41:44;-16261.94;;;-139.71;70.25
3598;BME280;1813;52.016;8.714;2022-07-25T01:44:16;-16261.94;;;-139.71;70.26
3598;BME280;1813;52.016;8.714;2022-07-25T01:46:48;-16261.94;;;-139.71;70.16
3598;BME280;1813;52.016;8.714;2022-07-25T01:49:20;-16261.94;;;-139.71;70.04
3598;BME280;1813;52.016;8.714;2022-07-25T01:51:53;-16261.94;;;-139.71;69.88
3598;BME280;1813;52.016;8.714;2022-07-25T01:54:25;-16261.94;;;-139.71;69.25
3598;BME280;1813;52.016;8.714;2022-07-25T01:56:57;-16261.94;;;-139.71;68.80
3598;BME280;1813;52.016;8.714;2022-07-25T01:59:29;-16261.94;;;-139.71;68.95
3598;BME280;1813;52.016;8.714;2022-07-25T02:02:01;-16261.94;;;-139.71;68.85
3598;BME280;1813;52.016;8.714;2022-07-25T02:04:34;-16261.94;;;-139.71;68.61
3598;BME280;1813;52.016;8.714;2022-07-25T02:07:07;-16261.94;;;-139.71;68.81
3598;BME280;1813;52.016;8.714;2022-07-25T02:09:39;-16261.94;;;-139.71;68.93
3598;BME280;1813;52.016;8.714;2022-07-25T02:12:12;-16261.94;;;-139.71;69.01
3598;BME280;1813;52.016;8.714;2022-07-25T02:14:43;-16261.94;;;-139.71;69.16
3598;BME280;1813;52.016;8.714;2022-07-25T02:17:15;-16261.94;;;-139.71;69.39
3598;BME280;1813;52.016;8.714;2022-07-25T02:19:47;-16261.94;;;-139.71;69.89
3598;BME280;1813;52.016;8.714;2022-07-25T02:22:21;-16261.94;;;-139.71;69.97
3598;BME280;1813;52.016;8.714;2022-07-25T02:24:53;-16261.94;;;-139.71;69.55
3598;BME280;1813;52.016;8.714;2022-07-25T02:27:25;-16261.94;;;-139.71;70.07
3598;BME280;1813;52.016;8.714;2022-07-25T02:29:57;-16261.94;;;-139.71;69.81
3598;BME280;1813;52.016;8.714;2022-07-25T02:32:29;-16261.94;;;-139.71;70.04
3598;BME280;1813;52.016;8.714;2022-07-25T02:35:01;-16261.94;;;-139.71;69.86
3598;BME280;1813;52.016;8.714;2022-07-25T02:37:34;-16261.94;;;-139.71;70.08
3598;BME280;1813;52.016;8.714;2022-07-25T02:40:07;-16261.94;;;-139.71;69.62
3598;BME280;1813;52.016;8.714;2022-07-25T02:42:40;-16261.94;;;-139.71;69.59
3598;BME280;1813;52.016;8.714;2022-07-25T02:45:12;-16261.94;;;-139.71;69.88
3598;BME280;1813;52.016;8.714;2022-07-25T02:47:43;-16261.94;;;-139.71;70.08
3598;BME280;1813;52.016;8.714;2022-07-25T02:50:16;-16261.94;;;-139.71;70.40
3598;BME280;1813;52.016;8.714;2022-07-25T02:52:49;-16261.94;;;-139.71;70.58
3598;BME280;1813;52.016;8.714;2022-07-25T02:55:21;-16261.94;;;-139.71;69.79
3598;BME280;1813;52.016;8.714;2022-07-25T02:57:53;-16261.94;;;-139.71;69.61
3598;BME280;1813;52.016;8.714;2022-07-25T03:00:25;-16261.94;;;-139.71;69.80
3598;BME280;1813;52.016;8.714;2022-07-25T03:02:58;-16261.94;;;-139.71;69.35
3598;BME280;1813;52.016;8.714;2022-07-25T03:05:30;-16261.94;;;-139.71;68.52
3598;BME280;1813;52.016;8.714;2022-07-25T03:08:04;-16261.94;;;-139.71;68.19
3598;BME280;1813;52.016;8.714;2022-07-25T03:10:36;-16261.94;;;-139.71;67.89
3598;BME280;1813;52.016;8.714;2022-07-25T03:13:08;-16261.94;;;-139.71;67.73
3598;BME280;1813;52.016;8.714;2022-07-25T03:15:40;-16261.94;;;-139.71;67.79
3598;BME280;1813;52.016;8.714;2022-07-25T03:18:12;-16261.94;;;-139.71;67.62
3598;BME280;1813;52.016;8.714;2022-07-25T03:20:44;-16261.94;;;-139.71;67.55
3598;BME280;1813;52.016;8.714;2022-07-25T03:23:17;-16261.94;;;-139.71;68.37
3598;BME280;1813;52.016;8.714;2022-07-25T03:25:49;-16261.94;;;-139.71;68.52
3598;BME280;1813;52.016;8.714;2022-07-25T03:28:21;-16261.94;;;-139.71;68.73
3598;BME280;1813;52.016;8.714;2022-07-25T03:30:54;-16261.94;;;-139.71;68.49
3598;BME280;1813;52.016;8.714;2022-07-25T03:33:26;-16261.94;;;-139.71;68.46
3598;BME280;1813;52.016;8.714;2022-07-25T03:35:58;-16261.94;;;-139.71;68.36
3598;BME280;1813;52.016;8.714;2022-07-25T03:38:31;-16261.94;;;-139.71;68.31
3598;BME280;1813;52.016;8.714;2022-07-25T03:41:03;-16261.94;;;-139.71;68.71
3598;BME280;1813;52.016;8.714;2022-07-25T03:43:35;-16261.94;;;-139.71;69.33
3598;BME280;1813;52.016;8.714;2022-07-25T03:46:07;-16261.94;;;-139.71;69.43
3598;BME280;1813;52.016;8.714;2022-07-25T03:48:39;-16261.94;;;-139.71;69.94
3598;BME280;1813;52.016;8.714;2022-07-25T03:51:11;-16261.94;;;-139.71;70.13
3598;BME280;1813;52.016;8.714;2022-07-25T03:53:45;-16261.94;;;-139.71;69.52
3598;BME280;1813;52.016;8.714;2022-07-25T03:56:38;-16261.94;;;-139.71;68.85
3598;BME280;1813;52.016;8.714;2022-07-25T03:59:11;-16261.94;;;-139.71;68.59
3598;BME280;1813;52.016;8.714;2022-07-25T04:01:45;-16261.94;;;-139.71;68.50
3598;BME280;1813;52.016;8.714;2022-07-25T04:04:18;-16261.94;;;-139.71;68.14
3598;BME280;1813;52.016;8.714;2022-07-25T04:06:50;-16261.94;;;-139.71;67.99
3598;BME280;1813;52.016;8.714;2022-07-25T04:09:23;-16261.94;;;-139.71;67.44
3598;BME280;1813;52.016;8.714;2022-07-25T04:11:55;-16261.94;;;-139.71;67.24
3598;BME280;1813;52.016;8.714;2022-07-25T04:14:27;-16261.94;;;-139.71;66.94
3598;BME280;1813;52.016;8.714;2022-07-25T04:16:59;-16261.94;;;-139.71;66.74
3598;BME280;1813;52.016;8.714;2022-07-25T04:19:31;-16261.94;;;-139.71;66.56
3598;BME280;1813;52.016;8.714;2022-07-25T04:22:03;-16261.94;;;-139.71;66.65
3598;BME280;1813;52.016;8.714;2022-07-25T04:24:36;-16261.94;;;-139.71;67.17
3598;BME280;1813;52.016;8.714;2022-07-25T04:27:08;-16261.94;;;-139.71;66.64
3598;BME280;1813;52.016;8.714;2022-07-25T04:29:40;-16261.94;;;-139.71;66.76
3598;BME280;1813;52.016;8.714;2022-07-25T04:32:12;-16261.94;;;-139.71;66.63
3598;BME280;1813;52.016;8.714;2022-07-25T04:34:46;-16261.94;;;-139.71;66.78
3598;BME280;1813;52.016;8.714;2022-07-25T04:37:18;-16261.94;;;-139.71;66.37
3598;BME280;1813;52.016;8.714;2022-07-25T04:39:51;-16261.94;;;-139.71;66.40
3598;BME280;1813;52.016;8.714;2022-07-25T04:42:23;-16261.94;;;-139.71;66.74
3598;BME280;1813;52.016;8.714;2022-07-25T04:44:55;-16261.94;;;-139.71;66.61
3598;BME280;1813;52.016;8.714;2022-07-25T04:47:27;-16261.94;;;-139.71;67.21
3598;BME280;1813;52.016;8.714;2022-07-25T04:49:59;-16261.94;;;-139.71;66.87
3598;BME280;1813;52.016;8.714;2022-07-25T04:52:31;-16261.94;;;-139.71;66.89
3598;BME280;1813;52.016;8.714;2022-07-25T04:55:05;-16261.94;;;-139.71;66.79
3598;BME280;1813;52.016;8.714;2022-07-25T04:57:38;-16261.94;;;-139.71;66.92
3598;BME280;1813;52.016;8.714;2022-07-25T05:00:11;-16261.94;;;-139.71;66.88
3598;BME280;1813;52.016;8.714;2022-07-25T05:02:43;-16261.94;;;-139.71;66.83
3598;BME280;1813;52.016;8.714;2022-07-25T05:05:15;-16261.94;;;-139.71;67.61
3598;BME280;1813;52.016;8.714;2022-07-25T05:07:47;-16261.94;;;-139.71;68.30
3598;BME280;1813;52.016;8.714;2022-07-25T05:10:20;-16261.94;;;-139.71;68.53
3598;BME280;1813;52.016;8.714;2022-07-25T05:12:52;-16261.94;;;-139.71;67.61
3598;BME280;1813;52.016;8.714;2022-07-25T05:15:24;-16261.94;;;-139.71;67.75
3598;BME280;1813;52.016;8.714;2022-07-25T05:17:56;-16261.94;;;-139.71;68.44
3598;BME280;1813;52.016;8.714;2022-07-25T05:20:28;-16261.94;;;-139.71;68.26
3598;BME280;1813;52.016;8.714;2022-07-25T05:23:01;-16261.94;;;-139.71;67.82
3598;BME280;1813;52.016;8.714;2022-07-25T05:25:34;-16261.94;;;-139.71;67.48
3598;BME280;1813;52.016;8.714;2022-07-25T05:28:06;-16261.94;;;-139.71;67.26
3598;BME280;1813;52.016;8.714;2022-07-25T05:30:38;-16261.94;;;-139.71;67.32
3598;BME280;1813;52.016;8.714;2022-07-25T05:33:10;-16261.94;;;-139.71;67.50
3598;BME280;1813;52.016;8.714;2022-07-25T05:35:42;-16261.94;;;-139.71;67.47
3598;BME280;1813;52.016;8.714;2022-07-25T05:38:14;-16261.94;;;-139.71;67.67
3598;BME280;1813;52.016;8.714;2022-07-25T05:40:47;-16261.94;;;-139.71;68.43
3598;BME280;1813;52.016;8.714;2022-07-25T05:43:21;-16261.94;;;-139.71;67.79
3598;BME280;1813;52.016;8.714;2022-07-25T05:45:59;-16261.94;;;-139.71;67.60
3598;BME280;1813;52.016;8.714;2022-07-25T05:48:31;-16261.94;;;-139.71;67.27
3598;BME280;1813;52.016;8.714;2022-07-25T05:51:03;-16261.94;;;-139.71;67.36
3598;BME280;1813;52.016;8.714;2022-07-25T05:53:35;-16261.94;;;-139.71;66.86
3598;BME280;1813;52.016;8.714;2022-07-25T05:56:09;-16261.94;;;-139.71;66.25
3598;BME280;1813;52.016;8.714;2022-07-25T05:58:41;-16261.94;;;-139.71;67.11
3598;BME280;1813;52.016;8.714;2022-07-25T06:01:14;-16261.94;;;-139.71;66.63
3598;BME280;1813;52.016;8.714;2022-07-25T06:03:47;-16261.94;;;-139.71;66.69
3598;BME280;1813;52.016;8.714;2022-07-25T06:06:19;-16261.94;;;-139.71;66.22
3598;BME280;1813;52.016;8.714;2022-07-25T06:08:51;-16261.94;;;-139.71;65.98
3598;BME280;1813;52.016;8.714;2022-07-25T06:11:24;-16261.94;;;-139.71;64.72
3598;BME280;1813;52.016;8.714;2022-07-25T06:13:58;-16261.94;;;-139.71;64.97
3598;BME280;1813;52.016;8.714;2022-07-25T06:16:29;-16261.94;;;-139.71;65.26
3598;BME280;1813;52.016;8.714;2022-07-25T06:19:01;-16261.94;;;-139.71;64.62
3598;BME280;1813;52.016;8.714;2022-07-25T06:21:34;-16261.94;;;-139.71;64.44
3598;BME280;1813;52.016;8.714;2022-07-25T06:24:06;-16261.94;;;-139.71;64.62
3598;BME280;1813;52.016;8.714;2022-07-25T06:26:40;-16261.94;;;-139.71;64.01
3598;BME280;1813;52.016;8.714;2022-07-25T06:29:12;-16261.94;;;-139.71;63.87
3598;BME280;1813;52.016;8.714;2022-07-25T06:31:44;-16261.94;;;-139.71;62.78
3598;BME280;1813;52.016;8.714;2022-07-25T06:34:16;-16261.94;;;-139.71;60.47
3598;BME280;1813;52.016;8.714;2022-07-25T06:36:48;-16261.94;;;-139.71;60.67
3598;BME280;1813;52.016;8.714;2022-07-25T06:39:20;-16261.94;;;-139.71;59.77
3598;BME280;1813;52.016;8.714;2022-07-25T06:41:53;-16261.94;;;-139.71;55.50
3598;BME280;1813;52.016;8.714;2022-07-25T06:44:27;-16261.94;;;-139.71;55.88
3598;BME280;1813;52.016;8.714;2022-07-25T06:46:59;-16261.94;;;-139.71;52.35
3598;BME280;1813;52.016;8.714;2022-07-25T06:49:30;-16261.94;;;-139.71;50.92
3598;BME280;1813;52.016;8.714;2022-07-25T06:52:03;-16261.94;;;-139.71;49.95
3598;BME280;1813;52.016;8.714;2022-07-25T06:54:35;-16261.94;;;-139.71;49.54
3598;BME280;1813;52.016;8.714;2022-07-25T06:57:08;-16261.94;;;-139.71;49.32
3598;BME280;1813;52.016;8.714;2022-07-25T06:59:40;-16261.94;;;-139.71;48.99
3598;BME280;1813;52.016;8.714;2022-07-25T07:02:14;-16261.94;;;-139.71;49.16
3598;BME280;1813;52.016;8.714;2022-07-25T07:04:46;-16261.94;;;-139.71;48.72
3598;BME280;1813;52.016;8.714;2022-07-25T07:07:18;-16261.94;;;-139.71;48.78
3598;BME280;1813;52.016;8.714;2022-07-25T07:09:50;-16261.94;;;-139.71;48.37
3598;BME280;1813;52.016;8.714;2022-07-25T07:12:23;-16261.94;;;-139.71;50.25
3598;BME280;1813;52.016;8.714;2022-07-25T07:14:55;-16261.94;;;-139.71;44.40
3598;BME280;1813;52.016;8.714;2022-07-25T07:17:27;-16261.94;;;-139.71;42.94
3598;BME280;1813;52.016;8.714;2022-07-25T07:19:59;-16261.94;;;-139.71;41.79
3598;BME280;1813;52.016;8.714;2022-07-25T07:22:31;-16261.94;;;-139.71;40.88
3598;BME280;1813;52.016;8.714;2022-07-25T07:25:04;-16261.94;;;-139.71;40.26
3598;BME280;1813;52.016;8.714;2022-07-25T07:27:37;-16261.94;;;-139.71;39.90
3598;BME280;1813;52.016;8.714;2022-07-25T07:30:10;-16261.94;;;-139.71;39.77
3598;BME280;1813;52.016;8.714;2022-07-25T07:32:44;-16261.94;;;-139.71;39.53
3598;BME280;1813;52.016;8.714;2022-07-25T07:35:16;-16261.94;;;-139.71;39.58
3598;BME280;1813;52.016;8.714;2022-07-25T07:37:48;-16261.94;;;-139.71;38.84
3598;BME280;1813;52.016;8.714;2022-07-25T07:40:21;-16261.94;;;-139.71;38.50
3598;BME280;1813;52.016;8.714;2022-07-25T07:42:56;-16261.94;;;-139.71;37.79
3598;BME280;1813;52.016;8.714;2022-07-25T07:45:30;-16261.94;;;-139.71;38.14
3598;BME280;1813;52.016;8.714;2022-07-25T07:48:03;-16261.94;;;-139.71;38.16
3598;BME280;1813;52.016;8.714;2022-07-25T07:50:36;-16261.94;;;-139.71;37.88
3598;BME280;1813;52.016;8.714;2022-07-25T07:53:08;-16261.94;;;-139.71;37.50
3598;BME280;1813;52.016;8.714;2022-07-25T07:55:40;-16261.94;;;-139.71;38.05
3598;BME280;1813;52.016;8.714;2022-07-25T07:58:17;-16261.94;;;-139.71;37.05
3598;BME280;1813;52.016;8.714;2022-07-25T08:00:49;-16261.94;;;-139.71;37.62
3598;BME280;1813;52.016;8.714;2022-07-25T08:03:22;-16261.94;;;-139.71;37.37
3598;BME280;1813;52.016;8.714;2022-07-25T08:05:54;-16261.94;;;-139.71;37.38
3598;BME280;1813;52.016;8.714;2022-07-25T08:08:26;-16261.94;;;-139.71;37.25
3598;BME280;1813;52.016;8.714;2022-07-25T08:10:58;-16261.94;;;-139.71;36.86
3598;BME280;1813;52.016;8.714;2022-07-25T08:13:31;-16261.94;;;-139.71;37.03
3598;BME280;1813;52.016;8.714;2022-07-25T08:16:04;-16261.94;;;-139.71;37.24
3598;BME280;1813;52.016;8.714;2022-07-25T08:18:36;-16261.94;;;-139.71;37.06
3598;BME280;1813;52.016;8.714;2022-07-25T08:21:09;-16261.94;;;-139.71;37.17
3598;BME280;1813;52.016;8.714;2022-07-25T08:23:41;-16261.94;;;-139.71;37.38
3598;BME280;1813;52.016;8.714;2022-07-25T08:26:16;-16261.94;;;-139.71;36.51
3598;BME280;1813;52.016;8.714;2022-07-25T08:28:49;-16261.94;;;-139.71;36.08
3598;BME280;1813;52.016;8.714;2022-07-25T08:31:22;-16261.94;;;-139.71;36.30
3598;BME280;1813;52.016;8.714;2022-07-25T08:33:54;-16261.94;;;-139.71;35.73
3598;BME280;1813;52.016;8.714;2022-07-25T08:36:26;-16261.94;;;-139.71;35.96
3598;BME280;1813;52.016;8.714;2022-07-25T08:38:58;-16261.94;;;-139.71;35.05
3598;BME280;1813;52.016;8.714;2022-07-25T08:41:31;-16261.94;;;-139.71;34.83
3598;BME280;1813;52.016;8.714;2022-07-25T08:44:07;-16261.94;;;-139.71;34.34
3598;BME280;1813;52.016;8.714;2022-07-25T08:46:39;-16261.94;;;-139.71;34.74
3598;BME280;1813;52.016;8.714;2022-07-25T08:49:12;-16261.94;;;-139.71;33.75
3598;BME280;1813;52.016;8.714;2022-07-25T08:51:44;-16261.94;;;-139.71;33.63
3598;BME280;1813;52.016;8.714;2022-07-25T08:54:17;-16261.94;;;-139.71;33.11
3598;BME280;1813;52.016;8.714;2022-07-25T08:56:49;-16261.94;;;-139.71;33.04
3598;BME280;1813;52.016;8.714;2022-07-25T08:59:22;-16261.94;;;-139.71;33.18
3598;BME280;1813;52.016;8.714;2022-07-25T09:01:54;-16261.94;;;-139.71;32.66
3598;BME280;1813;52.016;8.714;2022-07-25T09:04:28;-16261.94;;;-139.71;32.68
3598;BME280;1813;52.016;8.714;2022-07-25T09:07:00;-16261.94;;;-139.71;32.89
3598;BME280;1813;52.016;8.714;2022-07-25T09:09:36;-16261.94;;;-139.71;32.00
3598;BME280;1813;52.016;8.714;2022-07-25T09:12:09;-16261.94;;;-139.71;32.31
3598;BME280;1813;52.016;8.714;2022-07-25T09:14:43;-16261.94;;;-139.71;32.47
3598;BME280;1813;52.016;8.714;2022-07-25T09:17:15;-16261.94;;;-139.71;32.45
3598;BME280;1813;52.016;8.714;2022-07-25T09:19:51;-16261.94;;;-139.71;31.91
3598;BME280;1813;52.016;8.714;2022-07-25T09:22:23;-16261.94;;;-139.71;32.01
3598;BME280;1813;52.016;8.714;2022-07-25T09:24:55;-16261.94;;;-139.71;31.97
3598;BME280;1813;52.016;8.714;2022-07-25T09:27:31;-16261.94;;;-139.71;32.61
3598;BME280;1813;52.016;8.714;2022-07-25T09:30:12;-16261.94;;;-139.71;31.78
3598;BME280;1813;52.016;8.714;2022-07-25T09:32:45;-16261.94;;;-139.71;31.86
3598;BME280;1813;52.016;8.714;2022-07-25T09:35:17;-16261.94;;;-139.71;31.38
3598;BME280;1813;52.016;8.714;2022-07-25T09:37:49;-16261.94;;;-139.71;31.56
3598;BME280;1813;52.016;8.714;2022-07-25T09:40:21;-16261.94;;;-139.71;31.01
3598;BME280;1813;52.016;8.714;2022-07-25T09:42:53;-16261.94;;;-139.71;30.97
3598;BME280;1813;52.016;8.714;2022-07-25T09:45:26;-16261.94;;;-139.71;30.89
3598;BME280;1813;52.016;8.714;2022-07-25T09:48:00;-16261.94;;;-139.71;31.22
3598;BME280;1813;52.016;8.714;2022-07-25T09:50:32;-16261.94;;;-139.71;30.76
3598;BME280;1813;52.016;8.714;2022-07-25T09:53:04;-16261.94;;;-139.71;31.12
3598;BME280;1813;52.016;8.714;2022-07-25T09:55:36;-16261.94;;;-139.71;31.18
3598;BME280;1813;52.016;8.714;2022-07-25T09:58:08;-16261.94;;;-139.71;31.45
3598;BME280;1813;52.016;8.714;2022-07-25T10:00:42;-16261.94;;;-139.71;31.65
3598;BME280;1813;52.016;8.714;2022-07-25T10:03:18;-16261.94;;;-139.71;31.57
3598;BME280;1813;52.016;8.714;2022-07-25T10:06:01;-16261.94;;;-139.71;31.65
3598;BME280;1813;52.016;8.714;2022-07-25T10:08:39;-16261.94;;;-139.71;31.12
3598;BME280;1813;52.016;8.714;2022-07-25T10:11:20;-16261.94;;;-139.71;31.46
3598;BME280;1813;52.016;8.714;2022-07-25T10:13:53;-16261.94;;;-139.71;31.40
3598;BME280;1813;52.016;8.714;2022-07-25T10:16:27;-16261.94;;;-139.71;31.62
3598;BME280;1813;52.016;8.714;2022-07-25T10:18:59;-16261.94;;;-139.71;32.07
3598;BME280;1813;52.016;8.714;2022-07-25T10:21:31;-16261.94;;;-139.71;32.14
3598;BME280;1813;52.016;8.714;2022-07-25T10:24:05;-16261.94;;;-139.71;32.02
3598;BME280;1813;52.016;8.714;2022-07-25T10:26:38;-16261.94;;;-139.71;32.12
3598;BME280;1813;52.016;8.714;2022-07-25T10:29:11;-16261.94;;;-139.71;32.12
3598;BME280;1813;52.016;8.714;2022-07-25T10:31:45;-16261.94;;;-139.71;32.76
3598;BME280;1813;52.016;8.714;2022-07-25T10:34:27;-16261.94;;;-139.71;32.82
3598;BME280;1813;52.016;8.714;2022-07-25T10:37:08;-16261.94;;;-139.71;32.97
3598;BME280;1813;52.016;8.714;2022-07-25T10:39:42;-16261.94;;;-139.71;33.50
3598;BME280;1813;52.016;8.714;2022-07-25T10:42:16;-16261.94;;;-139.71;32.76
3598;BME280;1813;52.016;8.714;2022-07-25T10:44:49;-16261.94;;;-139.71;32.92
3598;BME280;1813;52.016;8.714;2022-07-25T10:47:25;-16261.94;;;-139.71;32.77
3598;BME280;1813;52.016;8.714;2022-07-25T10:50:00;-16261.94;;;-139.71;32.64
3598;BME280;1813;52.016;8.714;2022-07-25T10:52:39;-16261.94;;;-139.71;33.06
3598;BME280;1813;52.016;8.714;2022-07-25T10:55:21;-16261.94;;;-139.71;32.91
3598;BME280;1813;52.016;8.714;2022-07-25T10:57:58;-16261.94;;;-139.71;32.76
3598;BME280;1813;52.016;8.714;2022-07-25T11:00:31;-16261.94;;;-139.71;32.61
3598;BME280;1813;52.016;8.714;2022-07-25T11:03:05;-16261.94;;;-139.71;33.23
3598;BME280;1813;52.016;8.714;2022-07-25T11:05:43;-16261.94;;;-139.71;32.56
3598;BME280;1813;52.016;8.714;2022-07-25T11:08:16;-16261.94;;;-139.71;31.41
3598;BME280;1813;52.016;8.714;2022-07-25T11:10:49;-16261.94;;;-139.71;31.67
3598;BME280;1813;52.016;8.714;2022-07-25T11:13:22;-16261.94;;;-139.71;31.36
3598;BME280;1813;52.016;8.714;2022-07-25T11:15:57;-16261.94;;;-139.71;31.18
3598;BME280;1813;52.016;8.714;2022-07-25T11:18:32;-16261.94;;;-139.71;30.92
3598;BME280;1813;52.016;8.714;2022-07-25T11:21:07;-16261.94;;;-139.71;31.31
3598;BME280;1813;52.016;8.714;2022-07-25T11:23:39;-16261.94;;;-139.71;31.34
3598;BME280;1813;52.016;8.714;2022-07-25T11:26:13;-16261.94;;;-139.71;31.13
3598;BME280;1813;52.016;8.714;2022-07-25T11:28:46;-16261.94;;;-139.71;31.27
3598;BME280;1813;52.016;8.714;2022-07-25T11:31:21;-16261.94;;;-139.71;31.36
3598;BME280;1813;52.016;8.714;2022-07-25T11:33:54;-16261.94;;;-139.71;31.87
3598;BME280;1813;52.016;8.714;2022-07-25T11:36:28;-16261.94;;;-139.71;32.08
3598;BME280;1813;52.016;8.714;2022-07-25T11:39:00;-16261.94;;;-139.71;31.71
3598;BME280;1813;52.016;8.714;2022-07-25T11:41:32;-16261.94;;;-139.71;32.05
3598;BME280;1813;52.016;8.714;2022-07-25T11:44:04;-16261.94;;;-139.71;31.94
3598;BME280;1813;52.016;8.714;2022-07-25T11:46:41;-16261.94;;;-139.71;32.21
3598;BME280;1813;52.016;8.714;2022-07-25T11:49:15;-16261.94;;;-139.71;32.17
3598;BME280;1813;52.016;8.714;2022-07-25T11:51:47;-16261.94;;;-139.71;32.66
3598;BME280;1813;52.016;8.714;2022-07-25T11:54:19;-16261.94;;;-139.71;33.01
3598;BME280;1813;52.016;8.714;2022-07-25T11:56:51;-16261.94;;;-139.71;33.29
3598;BME280;1813;52.016;8.714;2022-07-25T11:59:23;-16261.94;;;-139.71;33.56
3598;BME280;1813;52.016;8.714;2022-07-25T12:01:56;-16261.94;;;-139.71;33.52
3598;BME280;1813;52.016;8.714;2022-07-25T12:04:29;-16261.94;;;-139.71;33.17
3598;BME280;1813;52.016;8.714;2022-07-25T12:07:03;-16261.94;;;-139.71;33.43
3598;BME280;1813;52.016;8.714;2022-07-25T12:09:35;-16261.94;;;-139.71;33.69
3598;BME280;1813;52.016;8.714;2022-07-25T12:12:07;-16261.94;;;-139.71;33.41
3598;BME280;1813;52.016;8.714;2022-07-25T12:14:43;-16261.94;;;-139.71;33.69
3598;BME280;1813;52.016;8.714;2022-07-25T12:17:15;-16261.94;;;-139.71;33.74
3598;BME280;1813;52.016;8.714;2022-07-25T12:19:48;-16261.94;;;-139.71;34.18
3598;BME280;1813;52.016;8.714;2022-07-25T12:22:20;-16261.94;;;-139.71;34.38
3598;BME280;1813;52.016;8.714;2022-07-25T12:24:52;-16261.94;;;-139.71;34.43
3598;BME280;1813;52.016;8.714;2022-07-25T12:27:24;-16261.94;;;-139.71;34.26
3598;BME280;1813;52.016;8.714;2022-07-25T12:29:56;-16261.94;;;-139.71;34.29
3598;BME280;1813;52.016;8.714;2022-07-25T12:32:28;-16261.94;;;-139.71;34.25
3598;BME280;1813;52.016;8.714;2022-07-25T12:35:02;-16261.94;;;-139.71;33.34
3598;BME280;1813;52.016;8.714;2022-07-25T12:37:35;-16261.94;;;-139.71;32.56
3598;BME280;1813;52.016;8.714;2022-07-25T12:40:08;-16261.94;;;-139.71;32.47
3598;BME280;1813;52.016;8.714;2022-07-25T12:42:40;-16261.94;;;-139.71;32.98
3598;BME280;1813;52.016;8.714;2022-07-25T12:45:13;-16261.94;;;-139.71;32.60
3598;BME280;1813;52.016;8.714;2022-07-25T12:47:47;-16261.94;;;-139.71;32.44
3598;BME280;1813;52.016;8.714;2022-07-25T12:50:20;-16261.94;;;-139.71;32.56
3598;BME280;1813;52.016;8.714;2022-07-25T12:52:55;-16261.94;;;-139.71;32.09
3598;BME280;1813;52.016;8.714;2022-07-25T12:55:27;-16261.94;;;-139.71;32.09
3598;BME280;1813;52.016;8.714;2022-07-25T12:57:59;-16261.94;;;-139.71;32.48
3598;BME280;1813;52.016;8.714;2022-07-25T13:00:31;-16261.94;;;-139.71;32.19
3598;BME280;1813;52.016;8.714;2022-07-25T13:03:03;-16261.94;;;-139.71;32.15
3598;BME280;1813;52.016;8.714;2022-07-25T13:05:38;-16261.94;;;-139.71;32.19
3598;BME280;1813;52.016;8.714;2022-07-25T13:08:10;-16261.94;;;-139.71;31.62
3598;BME280;1813;52.016;8.714;2022-07-25T13:10:42;-16261.94;;;-139.71;31.32
3598;BME280;1813;52.016;8.714;2022-07-25T13:13:14;-16261.94;;;-139.71;31.27
3598;BME280;1813;52.016;8.714;2022-07-25T13:15:46;-16261.94;;;-139.71;31.98
3598;BME280;1813;52.016;8.714;2022-07-25T13:18:18;-16261.94;;;-139.71;31.16